Terminal Aerodrome Forecast
Issued by NWS

Home | Current Version | Previous Version | Text Only | Print | Product List | Glossary On
Versions: 1 2 3 4 5 6 7 8 9 10 11 12 13 14 15 16 17 18 19 20 21 22
000
FTUS43 KBIS 302324
TAFDIK
TAF
KDIK 302324Z 3100/3124 13016KT P6SM SCT050 BKN100
     FM310500 13014KT P6SM VCSH SCT020 OVC050
     FM310800 13014KT P6SM -SHRA SCT015 OVC025
      TEMPO 3109/3113 2SM -SHRA BR SCT006 OVC015
     FM311500 14015KT P6SM SCT015 BKN035=

USA.gov is the U.S. government's official web portal to all federal, state and local government web resources and services.